sensor_id;sensor_type;location;lat;lon;timestamp;pressure;altitude;pressure_sealevel;temperature;humidity
16793;BME280;8513;42.662;23.350;2023-01-25T00:15:16;96005.50;;;4.22;62.91
16793;BME280;8513;42.662;23.350;2023-01-25T00:17:41;96002.22;;;4.04;63.23
16793;BME280;8513;42.662;23.350;2023-01-25T00:20:07;96000.78;;;4.14;63.40
16793;BME280;8513;42.662;23.350;2023-01-25T00:22:33;95998.44;;;4.10;63.60
16793;BME280;8513;42.662;23.350;2023-01-25T00:24:59;96006.69;;;4.02;64.13
16793;BME280;8513;42.662;23.350;2023-01-25T00:27:24;96005.41;;;4.09;63.52
16793;BME280;8513;42.662;23.350;2023-01-25T00:29:49;96003.47;;;4.13;63.41
16793;BME280;8513;42.662;23.350;2023-01-25T00:34:48;95998.50;;;3.62;65.26
16793;BME280;8513;42.662;23.350;2023-01-25T00:37:41;95997.13;;;3.87;64.84
16793;BME280;8513;42.662;23.350;2023-01-25T00:40:09;96005.84;;;4.02;64.46
16793;BME280;8513;42.662;23.350;2023-01-25T00:42:35;96000.91;;;3.81;64.47
16793;BME280;8513;42.662;23.350;2023-01-25T00:45:00;96000.97;;;3.95;64.00
16793;BME280;8513;42.662;23.350;2023-01-25T00:47:26;96007.28;;;3.91;64.52
16793;BME280;8513;42.662;23.350;2023-01-25T00:49:51;96001.44;;;3.88;64.49
16793;BME280;8513;42.662;23.350;2023-01-25T00:52:17;96009.81;;;3.93;63.94
16793;BME280;8513;42.662;23.350;2023-01-25T00:54:42;96006.94;;;3.97;63.68
16793;BME280;8513;42.662;23.350;2023-01-25T00:57:08;96009.28;;;4.02;63.54
16793;BME280;8513;42.662;23.350;2023-01-25T00:59:34;96009.06;;;3.91;63.93
16793;BME280;8513;42.662;23.350;2023-01-25T01:02:00;96006.16;;;3.95;63.36
16793;BME280;8513;42.662;23.350;2023-01-25T01:04:26;96003.28;;;3.86;63.64
16793;BME280;8513;42.662;23.350;2023-01-25T01:06:53;96003.94;;;3.89;63.25
16793;BME280;8513;42.662;23.350;2023-01-25T01:09:19;96001.50;;;3.86;62.73
16793;BME280;8513;42.662;23.350;2023-01-25T01:11:45;96000.88;;;3.67;62.82
16793;BME280;8513;42.662;23.350;2023-01-25T01:14:11;96001.84;;;3.80;62.61
16793;BME280;8513;42.662;23.350;2023-01-25T01:16:36;95999.97;;;3.82;63.14
16793;BME280;8513;42.662;23.350;2023-01-25T01:19:02;96002.00;;;3.93;62.31
16793;BME280;8513;42.662;23.350;2023-01-25T01:21:28;96002.06;;;3.61;63.66
16793;BME280;8513;42.662;23.350;2023-01-25T01:23:53;96001.16;;;3.76;63.15
16793;BME280;8513;42.662;23.350;2023-01-25T01:26:19;96000.75;;;3.68;63.00
16793;BME280;8513;42.662;23.350;2023-01-25T01:28:45;95996.59;;;3.18;65.15
16793;BME280;8513;42.662;23.350;2023-01-25T01:31:14;95994.84;;;3.50;63.69
16793;BME280;8513;42.662;23.350;2023-01-25T01:33:39;95990.78;;;3.61;63.66
16793;BME280;8513;42.662;23.350;2023-01-25T01:36:10;95989.78;;;3.63;63.94
16793;BME280;8513;42.662;23.350;2023-01-25T01:38:36;95983.06;;;3.75;63.79
16793;BME280;8513;42.662;23.350;2023-01-25T01:41:02;95979.69;;;3.73;63.75
16793;BME280;8513;42.662;23.350;2023-01-25T01:43:27;95981.47;;;3.72;63.31
16793;BME280;8513;42.662;23.350;2023-01-25T01:45:57;95984.06;;;3.72;63.62
16793;BME280;8513;42.662;23.350;2023-01-25T01:53:33;95973.44;;;3.45;64.03
16793;BME280;8513;42.662;23.350;2023-01-25T01:56:01;95975.09;;;3.62;63.79
16793;BME280;8513;42.662;23.350;2023-01-25T01:58:30;95979.69;;;3.73;63.76
16793;BME280;8513;42.662;23.350;2023-01-25T02:00:56;95975.44;;;3.72;63.75
16793;BME280;8513;42.662;23.350;2023-01-25T02:03:21;95975.09;;;3.78;63.57
16793;BME280;8513;42.662;23.350;2023-01-25T02:08:35;95968.53;;;3.71;64.32
16793;BME280;8513;42.662;23.350;2023-01-25T02:11:03;95982.63;;;3.83;63.95
16793;BME280;8513;42.662;23.350;2023-01-25T02:13:30;95980.47;;;3.75;64.18
16793;BME280;8513;42.662;23.350;2023-01-25T02:15:56;95974.16;;;3.63;64.49
16793;BME280;8513;42.662;23.350;2023-01-25T02:18:22;95976.69;;;3.65;63.91
16793;BME280;8513;42.662;23.350;2023-01-25T02:20:53;95973.34;;;3.63;63.99
16793;BME280;8513;42.662;23.350;2023-01-25T02:23:38;95972.31;;;3.65;64.40
16793;BME280;8513;42.662;23.350;2023-01-25T02:26:11;95978.78;;;3.58;64.37
16793;BME280;8513;42.662;23.350;2023-01-25T02:28:41;95979.13;;;3.68;63.41
16793;BME280;8513;42.662;23.350;2023-01-25T02:31:08;95977.72;;;3.62;63.62
16793;BME280;8513;42.662;23.350;2023-01-25T02:33:34;95979.22;;;3.66;63.63
16793;BME280;8513;42.662;23.350;2023-01-25T02:36:15;95973.28;;;3.48;64.02
16793;BME280;8513;42.662;23.350;2023-01-25T02:38:58;95978.09;;;3.70;63.18
16793;BME280;8513;42.662;23.350;2023-01-25T02:44:04;95970.16;;;3.58;63.45
16793;BME280;8513;42.662;23.350;2023-01-25T02:46:33;95967.47;;;3.59;63.92
16793;BME280;8513;42.662;23.350;2023-01-25T02:49:00;95965.47;;;3.64;63.66
16793;BME280;8513;42.662;23.350;2023-01-25T02:51:29;95966.56;;;3.28;64.61
16793;BME280;8513;42.662;23.350;2023-01-25T02:53:55;95961.78;;;3.37;64.30
16793;BME280;8513;42.662;23.350;2023-01-25T02:56:20;95968.31;;;3.60;63.31
16793;BME280;8513;42.662;23.350;2023-01-25T02:58:46;95967.97;;;3.50;63.90
16793;BME280;8513;42.662;23.350;2023-01-25T03:01:13;95974.34;;;3.60;63.47
16793;BME280;8513;42.662;23.350;2023-01-25T03:03:38;95971.56;;;3.63;63.60
16793;BME280;8513;42.662;23.350;2023-01-25T03:06:05;95966.94;;;3.68;63.04
16793;BME280;8513;42.662;23.350;2023-01-25T03:08:31;95976.88;;;3.62;63.53
16793;BME280;8513;42.662;23.350;2023-01-25T03:10:58;95979.53;;;3.60;64.04
16793;BME280;8513;42.662;23.350;2023-01-25T03:13:24;95974.16;;;3.63;63.90
16793;BME280;8513;42.662;23.350;2023-01-25T03:15:50;95969.84;;;3.64;63.71
16793;BME280;8513;42.662;23.350;2023-01-25T03:18:16;95972.50;;;3.62;63.69
16793;BME280;8513;42.662;23.350;2023-01-25T03:20:41;95976.28;;;3.57;64.23
16793;BME280;8513;42.662;23.350;2023-01-25T03:23:07;95966.38;;;3.47;64.31
16793;BME280;8513;42.662;23.350;2023-01-25T03:25:32;95967.31;;;3.46;64.58
16793;BME280;8513;42.662;23.350;2023-01-25T03:27:58;95964.81;;;3.45;64.26
16793;BME280;8513;42.662;23.350;2023-01-25T03:30:23;95972.75;;;3.58;64.22
16793;BME280;8513;42.662;23.350;2023-01-25T03:32:48;95972.75;;;3.58;63.67
16793;BME280;8513;42.662;23.350;2023-01-25T03:35:15;95964.66;;;3.48;63.86
16793;BME280;8513;42.662;23.350;2023-01-25T03:37:40;95972.53;;;3.46;64.37
16793;BME280;8513;42.662;23.350;2023-01-25T03:40:06;95970.84;;;3.45;64.12
16793;BME280;8513;42.662;23.350;2023-01-25T03:42:31;95968.91;;;3.49;64.04
16793;BME280;8513;42.662;23.350;2023-01-25T03:44:57;95967.97;;;3.50;63.87
16793;BME280;8513;42.662;23.350;2023-01-25T03:47:22;95967.66;;;3.56;64.20
16793;BME280;8513;42.662;23.350;2023-01-25T03:49:48;95966.66;;;3.59;63.56
16793;BME280;8513;42.662;23.350;2023-01-25T03:52:13;95966.72;;;3.41;63.92
16793;BME280;8513;42.662;23.350;2023-01-25T03:54:38;95958.75;;;3.44;63.81
16793;BME280;8513;42.662;23.350;2023-01-25T03:57:04;95958.69;;;3.46;63.66
16793;BME280;8513;42.662;23.350;2023-01-25T03:59:29;95963.78;;;3.47;63.44
16793;BME280;8513;42.662;23.350;2023-01-25T04:01:55;95960.09;;;3.51;63.53
16793;BME280;8513;42.662;23.350;2023-01-25T04:04:20;95955.25;;;3.45;64.08
16793;BME280;8513;42.662;23.350;2023-01-25T04:06:46;95952.16;;;3.23;64.58
16793;BME280;8513;42.662;23.350;2023-01-25T04:09:11;95945.69;;;3.30;64.24
16793;BME280;8513;42.662;23.350;2023-01-25T04:11:39;95960.94;;;3.36;64.07
16793;BME280;8513;42.662;23.350;2023-01-25T04:14:04;95954.75;;;3.39;63.97
16793;BME280;8513;42.662;23.350;2023-01-25T04:16:30;95950.22;;;3.42;64.23
16793;BME280;8513;42.662;23.350;2023-01-25T04:18:55;95954.97;;;3.50;63.82
16793;BME280;8513;42.662;23.350;2023-01-25T04:21:21;95947.69;;;3.41;64.02
16793;BME280;8513;42.662;23.350;2023-01-25T04:23:47;95944.56;;;3.50;63.82
16793;BME280;8513;42.662;23.350;2023-01-25T04:26:12;95948.19;;;3.47;63.29
16793;BME280;8513;42.662;23.350;2023-01-25T04:28:38;95944.84;;;3.45;63.06
16793;BME280;8513;42.662;23.350;2023-01-25T04:31:04;95954.50;;;3.43;63.89
16793;BME280;8513;42.662;23.350;2023-01-25T04:33:31;95947.94;;;3.52;63.65
16793;BME280;8513;42.662;23.350;2023-01-25T04:35:56;95959.88;;;3.40;63.25
16793;BME280;8513;42.662;23.350;2023-01-25T04:38:22;95961.78;;;3.37;63.46
16793;BME280;8513;42.662;23.350;2023-01-25T04:40:47;95971.69;;;3.46;63.37
16793;BME280;8513;42.662;23.350;2023-01-25T04:43:15;95958.94;;;3.41;63.70
16793;BME280;8513;42.662;23.350;2023-01-25T04:45:41;95968.91;;;3.49;62.98
16793;BME280;8513;42.662;23.350;2023-01-25T04:48:07;95970.34;;;3.39;62.73
16793;BME280;8513;42.662;23.350;2023-01-25T04:50:35;95964.13;;;3.25;63.64
16793;BME280;8513;42.662;23.350;2023-01-25T04:53:01;95957.44;;;3.37;62.56
16793;BME280;8513;42.662;23.350;2023-01-25T04:55:26;95962.47;;;3.40;62.89
16793;BME280;8513;42.662;23.350;2023-01-25T04:57:52;95963.13;;;3.44;62.63
16793;BME280;8513;42.662;23.350;2023-01-25T05:00:18;95962.13;;;3.30;61.80
16793;BME280;8513;42.662;23.350;2023-01-25T05:02:44;95963.38;;;3.39;61.82
16793;BME280;8513;42.662;23.350;2023-01-25T05:05:10;95956.09;;;3.30;62.18
16793;BME280;8513;42.662;23.350;2023-01-25T05:07:35;95960.03;;;3.37;61.71
16793;BME280;8513;42.662;23.350;2023-01-25T05:10:02;95954.91;;;3.36;61.90
16793;BME280;8513;42.662;23.350;2023-01-25T05:12:27;95952.56;;;3.31;62.18
16793;BME280;8513;42.662;23.350;2023-01-25T05:14:52;95953.91;;;3.38;61.91
16793;BME280;8513;42.662;23.350;2023-01-25T05:17:18;95953.91;;;3.38;61.97
16793;BME280;8513;42.662;23.350;2023-01-25T05:19:43;95954.50;;;3.43;61.61
16793;BME280;8513;42.662;23.350;2023-01-25T05:22:16;95943.34;;;3.25;62.39
16793;BME280;8513;42.662;23.350;2023-01-25T05:24:42;95948.78;;;3.37;61.79
16793;BME280;8513;42.662;23.350;2023-01-25T05:27:11;95957.69;;;3.33;62.18
16793;BME280;8513;42.662;23.350;2023-01-25T05:29:39;95950.53;;;3.36;61.90
16793;BME280;8513;42.662;23.350;2023-01-25T05:34:41;95954.25;;;3.32;62.51
16793;BME280;8513;42.662;23.350;2023-01-25T05:37:07;95959.19;;;3.37;61.93
16793;BME280;8513;42.662;23.350;2023-01-25T05:39:33;95945.53;;;3.33;61.72
16793;BME280;8513;42.662;23.350;2023-01-25T05:41:58;95948.06;;;3.35;61.34
16793;BME280;8513;42.662;23.350;2023-01-25T05:44:24;95952.91;;;3.41;61.57
16793;BME280;8513;42.662;23.350;2023-01-25T05:46:50;95962.78;;;3.34;61.80
16793;BME280;8513;42.662;23.350;2023-01-25T05:49:16;95961.63;;;3.24;61.78
16793;BME280;8513;42.662;23.350;2023-01-25T05:51:41;95967.97;;;3.34;61.44
16793;BME280;8513;42.662;23.350;2023-01-25T05:54:11;95960.28;;;3.48;61.23
16793;BME280;8513;42.662;23.350;2023-01-25T05:56:37;95960.34;;;3.31;60.76
16793;BME280;8513;42.662;23.350;2023-01-25T05:59:03;95967.31;;;3.15;60.82
16793;BME280;8513;42.662;23.350;2023-01-25T06:01:28;95968.09;;;3.33;60.79
16793;BME280;8513;42.662;23.350;2023-01-25T06:03:54;95962.53;;;3.39;60.02
16793;BME280;8513;42.662;23.350;2023-01-25T06:06:20;95964.81;;;3.45;60.23
16793;BME280;8513;42.662;23.350;2023-01-25T06:08:47;95963.13;;;3.44;60.01
16793;BME280;8513;42.662;23.350;2023-01-25T06:11:15;95959.63;;;3.45;60.37
16793;BME280;8513;42.662;23.350;2023-01-25T06:14:06;95968.44;;;3.42;60.51
16793;BME280;8513;42.662;23.350;2023-01-25T06:16:31;95965.81;;;3.42;60.75
16793;BME280;8513;42.662;23.350;2023-01-25T06:18:57;95969.16;;;3.44;60.57
16793;BME280;8513;42.662;23.350;2023-01-25T06:21:22;95977.53;;;3.49;60.40
16793;BME280;8513;42.662;23.350;2023-01-25T06:23:48;95974.44;;;2.95;62.01
16793;BME280;8513;42.662;23.350;2023-01-25T06:26:14;95976.63;;;2.70;63.29
16793;BME280;8513;42.662;23.350;2023-01-25T06:28:40;95979.34;;;2.51;63.95
16793;BME280;8513;42.662;23.350;2023-01-25T06:31:08;95979.97;;;2.56;64.08
16793;BME280;8513;42.662;23.350;2023-01-25T06:33:34;95972.66;;;2.96;62.70
16793;BME280;8513;42.662;23.350;2023-01-25T06:36:05;95975.19;;;2.97;62.49
16793;BME280;8513;42.662;23.350;2023-01-25T06:38:32;95970.50;;;3.20;61.93
16793;BME280;8513;42.662;23.350;2023-01-25T06:41:02;95967.50;;;3.12;62.02
16793;BME280;8513;42.662;23.350;2023-01-25T06:43:29;95975.47;;;3.08;62.07
16793;BME280;8513;42.662;23.350;2023-01-25T06:45:59;95972.63;;;3.29;61.86
16793;BME280;8513;42.662;23.350;2023-01-25T06:48:24;95975.22;;;3.45;61.00
16793;BME280;8513;42.662;23.350;2023-01-25T06:50:57;95973.78;;;3.39;61.53
16793;BME280;8513;42.662;23.350;2023-01-25T06:53:28;95969.16;;;3.44;60.75
16793;BME280;8513;42.662;23.350;2023-01-25T06:56:05;95970.56;;;3.50;60.12
16793;BME280;8513;42.662;23.350;2023-01-25T06:58:32;95976.72;;;3.49;60.51
16793;BME280;8513;42.662;23.350;2023-01-25T07:01:03;95978.88;;;3.57;60.05
16793;BME280;8513;42.662;23.350;2023-01-25T07:03:30;95971.34;;;3.52;59.97
16793;BME280;8513;42.662;23.350;2023-01-25T07:06:04;95971.88;;;3.43;60.61
16793;BME280;8513;42.662;23.350;2023-01-25T07:08:30;95971.69;;;3.46;60.58
16793;BME280;8513;42.662;23.350;2023-01-25T07:11:00;95969.84;;;3.32;60.86
16793;BME280;8513;42.662;23.350;2023-01-25T07:13:27;95968.56;;;3.39;60.87
16793;BME280;8513;42.662;23.350;2023-01-25T07:15:58;95967.97;;;3.34;60.86
16793;BME280;8513;42.662;23.350;2023-01-25T07:18:25;95968.16;;;3.31;61.25
16793;BME280;8513;42.662;23.350;2023-01-25T07:20:51;95971.03;;;3.26;61.62
16793;BME280;8513;42.662;23.350;2023-01-25T07:23:17;95969.75;;;3.49;61.22
16793;BME280;8513;42.662;23.350;2023-01-25T07:25:45;95976.13;;;3.28;61.41
16793;BME280;8513;42.662;23.350;2023-01-25T07:28:11;95978.56;;;3.31;61.40
16793;BME280;8513;42.662;23.350;2023-01-25T07:30:37;95974.53;;;3.41;61.29
16793;BME280;8513;42.662;23.350;2023-01-25T07:33:02;95974.16;;;3.63;60.46
16793;BME280;8513;42.662;23.350;2023-01-25T07:35:28;95984.69;;;3.62;60.08
16793;BME280;8513;42.662;23.350;2023-01-25T07:37:54;95976.19;;;3.58;60.49
16793;BME280;8513;42.662;23.350;2023-01-25T07:40:20;95976.13;;;3.60;59.83
16793;BME280;8513;42.662;23.350;2023-01-25T07:42:45;95985.91;;;3.70;60.11
16793;BME280;8513;42.662;23.350;2023-01-25T07:45:10;95979.06;;;3.53;60.89
16793;BME280;8513;42.662;23.350;2023-01-25T07:47:36;95987.44;;;3.74;60.28
16793;BME280;8513;42.662;23.350;2023-01-25T07:50:02;95988.75;;;3.66;60.44
16793;BME280;8513;42.662;23.350;2023-01-25T07:52:27;95986.50;;;3.60;60.93
16793;BME280;8513;42.662;23.350;2023-01-25T07:54:53;95989.03;;;3.77;60.56
16793;BME280;8513;42.662;23.350;2023-01-25T07:57:18;95982.06;;;3.62;60.70
16793;BME280;8513;42.662;23.350;2023-01-25T07:59:44;95985.75;;;3.42;61.54
16793;BME280;8513;42.662;23.350;2023-01-25T08:02:10;95988.28;;;3.43;61.81
16793;BME280;8513;42.662;23.350;2023-01-25T08:04:36;95985.09;;;3.54;61.42
16793;BME280;8513;42.662;23.350;2023-01-25T08:07:03;95980.81;;;3.69;61.12
16793;BME280;8513;42.662;23.350;2023-01-25T08:09:28;95978.88;;;3.72;61.33
16793;BME280;8513;42.662;23.350;2023-01-25T08:11:54;95976.69;;;3.65;61.11
16793;BME280;8513;42.662;23.350;2023-01-25T08:14:19;95979.06;;;3.53;61.66
16793;BME280;8513;42.662;23.350;2023-01-25T08:16:45;95978.47;;;3.64;61.19
16793;BME280;8513;42.662;23.350;2023-01-25T08:19:10;95979.88;;;3.70;61.25
16793;BME280;8513;42.662;23.350;2023-01-25T08:21:36;95984.31;;;3.68;61.37
16793;BME280;8513;42.662;23.350;2023-01-25T08:24:05;95981.81;;;3.66;61.24
16793;BME280;8513;42.662;23.350;2023-01-25T08:26:32;95974.31;;;3.76;61.24
16793;BME280;8513;42.662;23.350;2023-01-25T08:28:58;95967.38;;;3.61;61.61
16793;BME280;8513;42.662;23.350;2023-01-25T08:31:26;95983.81;;;3.77;61.72
16793;BME280;8513;42.662;23.350;2023-01-25T08:33:52;95974.91;;;3.81;61.43
16793;BME280;8513;42.662;23.350;2023-01-25T08:36:18;95975.00;;;3.80;61.00
16793;BME280;8513;42.662;23.350;2023-01-25T08:38:45;95975.16;;;3.76;61.81
16793;BME280;8513;42.662;23.350;2023-01-25T08:41:14;95974.31;;;3.76;62.04
16793;BME280;8513;42.662;23.350;2023-01-25T08:43:40;95971.63;;;3.93;61.46
16793;BME280;8513;42.662;23.350;2023-01-25T08:46:06;95972.53;;;3.92;61.37
16793;BME280;8513;42.662;23.350;2023-01-25T08:48:32;95970.03;;;3.91;61.26
16793;BME280;8513;42.662;23.350;2023-01-25T08:50:58;95964.00;;;3.90;61.55
16793;BME280;8513;42.662;23.350;2023-01-25T08:53:26;95962.28;;;3.89;61.64
16793;BME280;8513;42.662;23.350;2023-01-25T08:55:52;95966.88;;;3.70;62.79
16793;BME280;8513;42.662;23.350;2023-01-25T08:58:17;95967.91;;;3.97;61.92
16793;BME280;8513;42.662;23.350;2023-01-25T09:00:44;95974.31;;;3.76;63.47
16793;BME280;8513;42.662;23.350;2023-01-25T09:03:10;95973.59;;;3.58;63.44
16793;BME280;8513;42.662;23.350;2023-01-25T09:05:37;95970.28;;;3.86;62.78
16793;BME280;8513;42.662;23.350;2023-01-25T09:08:04;95974.66;;;3.86;62.73
16793;BME280;8513;42.662;23.350;2023-01-25T09:10:30;95965.47;;;3.94;62.45
16793;BME280;8513;42.662;23.350;2023-01-25T09:12:56;95966.38;;;4.09;62.21
16793;BME280;8513;42.662;23.350;2023-01-25T09:15:21;95965.81;;;4.18;61.87
16793;BME280;8513;42.662;23.350;2023-01-25T09:17:54;95954.41;;;3.91;62.13
16793;BME280;8513;42.662;23.350;2023-01-25T09:20:22;95954.75;;;4.15;62.32
16793;BME280;8513;42.662;23.350;2023-01-25T09:22:48;95948.00;;;3.96;62.86
16793;BME280;8513;42.662;23.350;2023-01-25T09:25:13;95954.94;;;4.12;62.55
16793;BME280;8513;42.662;23.350;2023-01-25T09:27:39;95952.03;;;4.16;62.18
16793;BME280;8513;42.662;23.350;2023-01-25T09:30:06;95944.59;;;4.10;62.69
16793;BME280;8513;42.662;23.350;2023-01-25T09:32:32;95943.91;;;3.92;63.56
16793;BME280;8513;42.662;23.350;2023-01-25T09:34:58;95945.31;;;3.98;63.44
16793;BME280;8513;42.662;23.350;2023-01-25T09:37:23;95934.91;;;3.98;63.27
16793;BME280;8513;42.662;23.350;2023-01-25T09:39:48;95928.41;;;4.05;63.58
16793;BME280;8513;42.662;23.350;2023-01-25T09:42:33;95935.34;;;4.20;63.06
16793;BME280;8513;42.662;23.350;2023-01-25T09:45:10;95922.00;;;3.96;63.76
16793;BME280;8513;42.662;23.350;2023-01-25T09:47:42;95920.53;;;4.07;64.12
16793;BME280;8513;42.662;23.350;2023-01-25T09:55:26;95910.38;;;4.02;64.10
16793;BME280;8513;42.662;23.350;2023-01-25T09:57:54;95906.69;;;4.20;63.72
16793;BME280;8513;42.662;23.350;2023-01-25T10:00:32;95907.53;;;4.21;63.67
16793;BME280;8513;42.662;23.350;2023-01-25T10:03:23;95894.13;;;4.27;62.43
16793;BME280;8513;42.662;23.350;2023-01-25T10:05:52;95888.97;;;4.41;62.47
16793;BME280;8513;42.662;23.350;2023-01-25T10:08:26;95882.44;;;4.63;62.15
16793;BME280;8513;42.662;23.350;2023-01-25T10:10:59;95883.72;;;4.70;61.28
16793;BME280;8513;42.662;23.350;2023-01-25T10:13:27;95885.97;;;4.76;60.45
16793;BME280;8513;42.662;23.350;2023-01-25T10:16:02;95881.13;;;4.56;60.79
16793;BME280;8513;42.662;23.350;2023-01-25T10:18:36;95864.72;;;4.82;60.23
16793;BME280;8513;42.662;23.350;2023-01-25T10:21:10;95862.75;;;4.86;60.28
16793;BME280;8513;42.662;23.350;2023-01-25T10:23:51;95860.41;;;4.96;59.22
16793;BME280;8513;42.662;23.350;2023-01-25T10:26:28;95865.97;;;5.04;59.54
16793;BME280;8513;42.662;23.350;2023-01-25T10:29:02;95858.66;;;4.96;58.67
16793;BME280;8513;42.662;23.350;2023-01-25T10:31:45;95866.34;;;5.12;58.63
16793;BME280;8513;42.662;23.350;2023-01-25T10:34:24;95855.13;;;4.97;58.39
16793;BME280;8513;42.662;23.350;2023-01-25T10:36:57;95850.59;;;4.86;57.85
16793;BME280;8513;42.662;23.350;2023-01-25T10:39:25;95846.09;;;4.89;58.15
16793;BME280;8513;42.662;23.350;2023-01-25T10:42:00;95844.84;;;5.08;57.36
16793;BME280;8513;42.662;23.350;2023-01-25T10:44:27;95836.38;;;5.05;57.51
16793;BME280;8513;42.662;23.350;2023-01-25T10:47:03;95835.19;;;5.23;57.61
16793;BME280;8513;42.662;23.350;2023-01-25T10:49:54;95834.81;;;5.29;56.22
16793;BME280;8513;42.662;23.350;2023-01-25T10:52:20;95831.16;;;5.05;56.92
16793;BME280;8513;42.662;23.350;2023-01-25T10:57:29;95815.91;;;5.26;55.09
16793;BME280;8513;42.662;23.350;2023-01-25T10:59:55;95812.06;;;5.31;56.15
16793;BME280;8513;42.662;23.350;2023-01-25T11:02:43;95813.06;;;5.16;56.79
16793;BME280;8513;42.662;23.350;2023-01-25T11:07:44;95807.28;;;5.38;55.04
16793;BME280;8513;42.662;23.350;2023-01-25T11:15:42;95802.09;;;5.51;54.98
16793;BME280;8513;42.662;23.350;2023-01-25T11:18:17;95807.09;;;5.41;55.07
16793;BME280;8513;42.662;23.350;2023-01-25T11:20:43;95793.28;;;5.39;54.85
16793;BME280;8513;42.662;23.350;2023-01-25T11:23:22;95784.97;;;5.47;54.39
16793;BME280;8513;42.662;23.350;2023-01-25T11:25:49;95789.78;;;5.40;54.56
16793;BME280;8513;42.662;23.350;2023-01-25T11:28:24;95790.41;;;5.44;54.13
16793;BME280;8513;42.662;23.350;2023-01-25T11:30:51;95779.16;;;5.56;54.23
16793;BME280;8513;42.662;23.350;2023-01-25T11:33:18;95783.31;;;5.46;54.29
16793;BME280;8513;42.662;23.350;2023-01-25T11:38:25;95782.34;;;5.34;54.27
16793;BME280;8513;42.662;23.350;2023-01-25T11:51:38;95747.44;;;5.75;53.33
16793;BME280;8513;42.662;23.350;2023-01-25T12:03:00;95736.25;;;5.60;53.98
16793;BME280;8513;42.662;23.350;2023-01-25T12:13:50;95727.06;;;5.42;53.68
16793;BME280;8513;42.662;23.350;2023-01-25T12:19:09;95727.06;;;5.42;53.84
16793;BME280;8513;42.662;23.350;2023-01-25T12:30:01;95712.75;;;5.47;53.78
16793;BME280;8513;42.662;23.350;2023-01-25T12:32:50;95714.88;;;5.55;53.30
16793;BME280;8513;42.662;23.350;2023-01-25T12:37:45;95709.66;;;5.55;53.04
16793;BME280;8513;42.662;23.350;2023-01-25T12:40:25;95705.69;;;5.62;52.87
16793;BME280;8513;42.662;23.350;2023-01-25T12:42:57;95708.50;;;5.59;53.06
16793;BME280;8513;42.662;23.350;2023-01-25T12:45:29;95706.13;;;5.56;53.20
16793;BME280;8513;42.662;23.350;2023-01-25T12:50:27;95703.81;;;5.51;53.47
16793;BME280;8513;42.662;23.350;2023-01-25T12:53:00;95698.16;;;5.58;53.23
16793;BME280;8513;42.662;23.350;2023-01-25T12:55:29;95692.94;;;5.45;53.62
16793;BME280;8513;42.662;23.350;2023-01-25T12:58:19;95699.19;;;5.42;53.38
16793;BME280;8513;42.662;23.350;2023-01-25T13:09:07;95685.50;;;5.13;54.16
16793;BME280;8513;42.662;23.350;2023-01-25T13:11:40;95677.81;;;5.24;53.38
16793;BME280;8513;42.662;23.350;2023-01-25T13:16:46;95684.50;;;5.28;53.86
16793;BME280;8513;42.662;23.350;2023-01-25T13:21:54;95668.31;;;5.23;53.77
16793;BME280;8513;42.662;23.350;2023-01-25T13:24:23;95671.13;;;5.20;53.50
16793;BME280;8513;42.662;23.350;2023-01-25T13:26:56;95665.41;;;5.28;53.63
16793;BME280;8513;42.662;23.350;2023-01-25T13:32:02;95667.06;;;5.16;54.02
16793;BME280;8513;42.662;23.350;2023-01-25T13:39:54;95676.97;;;5.37;53.83
16793;BME280;8513;42.662;23.350;2023-01-25T13:42:23;95675.00;;;5.27;54.04
16793;BME280;8513;42.662;23.350;2023-01-25T13:44:53;95676.66;;;5.28;54.02
16793;BME280;8513;42.662;23.350;2023-01-25T13:47:23;95682.81;;;5.15;53.95
16793;BME280;8513;42.662;23.350;2023-01-25T13:52:22;95680.28;;;5.13;53.89
16793;BME280;8513;42.662;23.350;2023-01-25T13:54:51;95675.00;;;5.15;54.12
16793;BME280;8513;42.662;23.350;2023-01-25T13:57:23;95680.22;;;5.27;54.09
16793;BME280;8513;42.662;23.350;2023-01-25T14:00:12;95684.22;;;4.93;54.19
16793;BME280;8513;42.662;23.350;2023-01-25T14:02:41;95685.06;;;4.94;54.73
16793;BME280;8513;42.662;23.350;2023-01-25T14:05:21;95689.53;;;4.92;54.43
16793;BME280;8513;42.662;23.350;2023-01-25T14:07:52;95692.91;;;5.06;54.33
16793;BME280;8513;42.662;23.350;2023-01-25T14:10:25;95679.47;;;5.00;54.19
16793;BME280;8513;42.662;23.350;2023-01-25T14:12:53;95681.81;;;4.90;54.47
16793;BME280;8513;42.662;23.350;2023-01-25T14:15:30;95685.19;;;5.05;54.03
16793;BME280;8513;42.662;23.350;2023-01-25T14:18:17;95686.00;;;4.93;54.45
16793;BME280;8513;42.662;23.350;2023-01-25T14:20:48;95676.66;;;5.03;54.37
16793;BME280;8513;42.662;23.350;2023-01-25T14:23:28;95674.47;;;5.09;54.17
16793;BME280;8513;42.662;23.350;2023-01-25T14:25:56;95676.66;;;5.16;53.96
16793;BME280;8513;42.662;23.350;2023-01-25T14:28:24;95678.06;;;4.81;54.89
16793;BME280;8513;42.662;23.350;2023-01-25T14:30:51;95672.84;;;4.81;55.28
16793;BME280;8513;42.662;23.350;2023-01-25T14:33:27;95659.50;;;4.86;54.68
16793;BME280;8513;42.662;23.350;2023-01-25T14:35:58;95662.59;;;4.78;55.08
16793;BME280;8513;42.662;23.350;2023-01-25T14:38:34;95665.50;;;4.61;55.27
16793;BME280;8513;42.662;23.350;2023-01-25T14:41:12;95669.91;;;4.46;56.16
16793;BME280;8513;42.662;23.350;2023-01-25T14:43:41;95661.72;;;4.52;55.98
16793;BME280;8513;42.662;23.350;2023-01-25T14:48:46;95665.63;;;4.72;55.44
16793;BME280;8513;42.662;23.350;2023-01-25T14:51:25;95656.25;;;4.70;55.48
16793;BME280;8513;42.662;23.350;2023-01-25T14:54:00;95666.03;;;4.66;55.56
16793;BME280;8513;42.662;23.350;2023-01-25T14:56:41;95663.72;;;4.34;55.77
16793;BME280;8513;42.662;23.350;2023-01-25T15:01:56;95665.91;;;4.68;55.02
16793;BME280;8513;42.662;23.350;2023-01-25T15:04:22;95677.56;;;4.62;55.36
16793;BME280;8513;42.662;23.350;2023-01-25T15:06:50;95677.28;;;4.67;55.42
16793;BME280;8513;42.662;23.350;2023-01-25T15:09:37;95673.50;;;4.58;55.56
16793;BME280;8513;42.662;23.350;2023-01-25T15:14:52;95682.75;;;4.49;56.03
16793;BME280;8513;42.662;23.350;2023-01-25T15:20:05;95695.78;;;4.08;56.94
16793;BME280;8513;42.662;23.350;2023-01-25T15:22:31;95704.81;;;3.73;58.95
16793;BME280;8513;42.662;23.350;2023-01-25T15:24:57;95703.81;;;3.62;59.89